Time;durP1;ratioP1;P1;durP2;ratioP2;P2;SDS_P1;SDS_P2;PMS_P1;PMS_P2;Temp;Humidity;BMP_temperature;BMP_pressure;BME280_temperature;BME280_humidity;BME280_pressure;Samples;Min_cycle;Max_cycle;Signal;HPM_P1;HPM_P2
2022/03/16 00:02:22;;;;;;;68.82;37.38;;;7.60;99.90;;;;;;4938221;28;20043;-68
2022/03/16 00:04:53;;;;;;;60.33;34.70;;;7.60;99.90;;;;;;4933333;28;20111;-65
2022/03/16 00:07:20;;;;;;;63.42;35.10;;;7.60;99.90;;;;;;4933872;28;20482;-68
2022/03/16 00:09:47;;;;;;;65.32;36.53;;;7.50;99.90;;;;;;4934944;28;20110;-66
2022/03/16 00:12:13;;;;;;;65.25;35.33;;;7.50;99.90;;;;;;4929853;28;20503;-64
2022/03/16 00:14:40;;;;;;;62.67;35.67;;;7.50;99.90;;;;;;4930088;28;20048;-66
2022/03/16 00:17:06;;;;;;;60.85;36.83;;;7.50;99.90;;;;;;4925897;28;20703;-67
2022/03/16 00:19:33;;;;;;;60.67;35.47;;;7.50;99.90;;;;;;4932370;28;22164;-65
2022/03/16 00:22:00;;;;;;;71.47;37.63;;;7.40;99.90;;;;;;4930571;28;20057;-65
2022/03/16 00:24:27;;;;;;;72.28;36.35;;;7.40;99.90;;;;;;4935056;28;20090;-63
2022/03/16 00:26:53;;;;;;;66.78;38.13;;;7.40;99.90;;;;;;4932782;28;20051;-68
2022/03/16 00:29:19;;;;;;;64.10;35.83;;;7.40;99.90;;;;;;4933866;28;20825;-67
2022/03/16 00:31:45;;;;;;;62.35;35.28;;;7.40;99.90;;;;;;4932062;28;20498;-63
2022/03/16 00:34:11;;;;;;;66.47;35.83;;;7.40;99.90;;;;;;4932336;28;20576;-67
2022/03/16 00:36:37;;;;;;;64.25;35.50;;;7.40;99.90;;;;;;4934751;28;20081;-67
2022/03/16 00:39:04;;;;;;;63.80;35.97;;;7.40;99.90;;;;;;4926326;28;20051;-68
2022/03/16 00:41:31;;;;;;;58.95;35.92;;;7.30;99.90;;;;;;4933791;28;20485;-63
2022/03/16 00:43:58;;;;;;;62.30;36.80;;;7.30;99.90;;;;;;4932475;28;20046;-65
2022/03/16 00:46:24;;;;;;;59.90;34.00;;;7.30;99.90;;;;;;4933423;28;20048;-67
2022/03/16 00:48:50;;;;;;;56.45;35.65;;;7.30;99.90;;;;;;4934289;28;20066;-66
2022/03/16 00:51:15;;;;;;;62.63;35.97;;;7.20;99.90;;;;;;4931455;28;20045;-63
2022/03/16 00:53:41;;;;;;;59.53;34.33;;;7.20;99.90;;;;;;4931315;28;20086;-63
2022/03/16 00:56:08;;;;;;;62.80;34.55;;;7.20;99.90;;;;;;4934657;28;20122;-68
2022/03/16 00:58:34;;;;;;;65.68;37.05;;;7.20;99.90;;;;;;4931796;28;20082;-63
2022/03/16 01:01:01;;;;;;;61.03;35.47;;;7.10;99.90;;;;;;4936952;28;20411;-67
2022/03/16 01:03:28;;;;;;;68.00;35.65;;;7.10;99.90;;;;;;4932290;28;20561;-68
2022/03/16 01:05:54;;;;;;;66.72;35.65;;;7.10;99.90;;;;;;4947911;28;20121;-60
2022/03/16 01:08:20;;;;;;;61.88;35.72;;;7.10;99.90;;;;;;4932662;28;20047;-67
2022/03/16 01:10:46;;;;;;;62.33;35.13;;;7.10;99.90;;;;;;4935132;28;20047;-63
2022/03/16 01:13:12;;;;;;;61.08;35.00;;;7.10;99.90;;;;;;4933413;28;20821;-68
2022/03/16 01:15:37;;;;;;;65.57;35.80;;;7.00;99.90;;;;;;4933580;28;20043;-62
2022/03/16 01:18:03;;;;;;;61.03;35.25;;;7.00;99.90;;;;;;4933821;28;20379;-67
2022/03/16 01:20:29;;;;;;;62.28;35.33;;;7.00;99.90;;;;;;4934292;28;20384;-66
2022/03/16 01:22:55;;;;;;;58.45;34.42;;;7.00;99.90;;;;;;4932632;28;20047;-64
2022/03/16 01:25:22;;;;;;;61.70;34.72;;;6.90;99.90;;;;;;4934179;28;20141;-64
2022/03/16 01:27:47;;;;;;;63.83;36.38;;;6.90;99.90;;;;;;4933704;28;20078;-63
2022/03/16 01:30:13;;;;;;;65.30;36.65;;;6.90;99.90;;;;;;4936535;28;20055;-66
2022/03/16 01:32:40;;;;;;;61.75;35.50;;;6.90;99.90;;;;;;4931718;28;20490;-67
2022/03/16 01:35:07;;;;;;;65.45;35.33;;;6.80;99.90;;;;;;4936027;28;20058;-68
2022/03/16 01:37:33;;;;;;;63.55;35.63;;;6.80;99.90;;;;;;4933237;28;20749;-67
2022/03/16 01:40:00;;;;;;;62.92;36.85;;;6.80;99.90;;;;;;4932940;28;20051;-67
2022/03/16 01:42:26;;;;;;;62.90;35.60;;;6.80;99.90;;;;;;4934709;28;20486;-67
2022/03/16 01:44:53;;;;;;;67.03;36.90;;;6.70;99.90;;;;;;4937435;28;20517;-68
2022/03/16 01:47:21;;;;;;;66.35;37.70;;;6.70;99.90;;;;;;4936744;28;20138;-66
2022/03/16 01:49:49;;;;;;;57.92;35.28;;;6.60;99.90;;;;;;4937308;28;20068;-62
2022/03/16 01:52:18;;;;;;;58.22;34.28;;;6.60;99.90;;;;;;4936894;28;20046;-68
2022/03/16 01:54:44;;;;;;;57.03;33.50;;;6.60;99.90;;;;;;4936462;28;20130;-67
2022/03/16 01:57:11;;;;;;;67.15;35.33;;;6.50;99.90;;;;;;4934203;28;20589;-65
2022/03/16 01:59:38;;;;;;;57.65;33.42;;;6.50;99.90;;;;;;4937010;28;20054;-64
2022/03/16 02:02:05;;;;;;;62.20;34.65;;;6.40;99.90;;;;;;4934504;28;20515;-63
2022/03/16 02:04:31;;;;;;;63.10;34.70;;;6.40;99.90;;;;;;4937591;28;20493;-64
2022/03/16 02:07:00;;;;;;;62.05;36.40;;;6.40;99.90;;;;;;4937571;28;20125;-67
2022/03/16 02:09:26;;;;;;;59.95;35.42;;;6.30;99.90;;;;;;4937721;28;20055;-62
2022/03/16 02:11:52;;;;;;;58.30;33.47;;;6.30;99.90;;;;;;4940559;28;20047;-68
2022/03/16 02:14:18;;;;;;;56.15;34.08;;;6.30;99.90;;;;;;4946222;28;20040;-68
2022/03/16 02:16:45;;;;;;;60.15;34.78;;;6.20;99.90;;;;;;4945375;28;20082;-62
2022/03/16 02:19:11;;;;;;;58.42;34.47;;;6.20;99.90;;;;;;4945991;28;20058;-67
2022/03/16 02:21:39;;;;;;;59.42;34.40;;;6.20;99.90;;;;;;4943650;28;20047;-63
2022/03/16 02:24:06;;;;;;;60.83;36.55;;;6.20;99.90;;;;;;4944404;28;20058;-67
2022/03/16 02:26:31;;;;;;;61.72;35.05;;;6.10;99.90;;;;;;4941643;28;20430;-65
2022/03/16 02:28:58;;;;;;;58.45;34.38;;;6.10;99.90;;;;;;4935809;28;20050;-64
2022/03/16 02:31:25;;;;;;;57.05;33.97;;;6.00;99.90;;;;;;4937891;28;20048;-66
2022/03/16 02:33:51;;;;;;;64.18;35.67;;;6.00;99.90;;;;;;4936824;28;20039;-68
2022/03/16 02:36:17;;;;;;;59.70;35.17;;;6.00;99.90;;;;;;4936994;28;20128;-66
2022/03/16 02:38:43;;;;;;;57.60;34.70;;;6.00;99.90;;;;;;4919660;28;20065;-68
2022/03/16 02:41:09;;;;;;;58.72;34.95;;;5.90;99.90;;;;;;4928983;28;20036;-64
2022/03/16 02:43:35;;;;;;;63.05;35.92;;;5.80;99.90;;;;;;4932968;28;20039;-65
2022/03/16 02:46:01;;;;;;;61.78;35.70;;;5.80;99.90;;;;;;4935674;28;20065;-66
2022/03/16 02:48:27;;;;;;;67.30;36.47;;;5.80;99.90;;;;;;4933626;28;20056;-67
2022/03/16 02:50:53;;;;;;;58.55;35.33;;;5.80;99.90;;;;;;4936692;28;20061;-64
2022/03/16 02:53:19;;;;;;;61.55;35.90;;;5.70;99.90;;;;;;4934549;28;20129;-69
2022/03/16 02:55:46;;;;;;;64.55;36.90;;;5.70;99.90;;;;;;4934180;28;20085;-68
2022/03/16 02:58:13;;;;;;;55.60;33.17;;;5.70;99.90;;;;;;4931158;28;20048;-66
2022/03/16 03:00:38;;;;;;;64.25;37.20;;;5.70;99.90;;;;;;4932741;28;20039;-66
2022/03/16 03:03:04;;;;;;;62.78;36.40;;;5.70;99.90;;;;;;4929597;28;20051;-64
2022/03/16 03:05:30;;;;;;;54.95;32.55;;;5.70;99.90;;;;;;4932391;28;20055;-67
2022/03/16 03:07:56;;;;;;;53.05;32.95;;;5.60;99.90;;;;;;4931167;28;20054;-61
2022/03/16 03:10:22;;;;;;;58.47;34.55;;;5.70;99.90;;;;;;4935239;28;20054;-67
2022/03/16 03:12:47;;;;;;;60.38;34.33;;;5.60;99.90;;;;;;4922369;28;20609;-60
2022/03/16 03:15:14;;;;;;;65.68;36.90;;;5.70;99.90;;;;;;4926159;28;20047;-62
2022/03/16 03:17:42;;;;;;;64.10;37.05;;;5.60;99.90;;;;;;4930228;28;20043;-64
2022/03/16 03:20:09;;;;;;;59.88;34.95;;;5.60;99.90;;;;;;4933834;28;20456;-63
2022/03/16 03:22:35;;;;;;;59.05;34.00;;;5.60;99.90;;;;;;4934353;28;20502;-65
2022/03/16 03:25:02;;;;;;;61.92;36.47;;;5.60;99.90;;;;;;4937230;28;20451;-67
2022/03/16 03:27:30;;;;;;;64.03;37.83;;;5.60;99.90;;;;;;4936564;28;20066;-64
2022/03/16 03:29:56;;;;;;;65.80;35.63;;;5.60;99.90;;;;;;4935377;28;20058;-65
2022/03/16 03:32:22;;;;;;;69.97;37.85;;;5.50;99.90;;;;;;4932850;28;20058;-62
2022/03/16 03:34:51;;;;;;;68.68;38.25;;;5.60;99.90;;;;;;4935184;28;20078;-67
2022/03/16 03:37:18;;;;;;;71.13;38.05;;;5.50;99.90;;;;;;4933277;28;20047;-67
2022/03/16 03:39:45;;;;;;;74.75;39.40;;;5.50;99.90;;;;;;4918872;28;20046;-65
2022/03/16 03:42:11;;;;;;;58.47;36.25;;;5.50;99.90;;;;;;4934895;28;20047;-68
2022/03/16 03:44:37;;;;;;;72.07;40.80;;;5.50;99.90;;;;;;4944113;28;20053;-61
2022/03/16 03:47:07;;;;;;;54.80;33.47;;;5.40;99.90;;;;;;4932548;28;20074;-66
2022/03/16 03:49:38;;;;;;;61.05;36.33;;;5.40;99.90;;;;;;4935591;28;20125;-64
2022/03/16 03:52:05;;;;;;;58.33;34.47;;;5.40;99.90;;;;;;4932085;28;20043;-67
2022/03/16 03:54:32;;;;;;;57.25;33.33;;;5.40;99.90;;;;;;4916695;28;20051;-68
2022/03/16 03:56:58;;;;;;;57.30;34.08;;;5.30;99.90;;;;;;4941699;28;20497;-68
2022/03/16 03:59:24;;;;;;;58.80;34.88;;;5.40;99.90;;;;;;4935847;28;20777;-62
2022/03/16 04:01:50;;;;;;;63.88;36.80;;;5.30;99.90;;;;;;4931530;28;20079;-68
2022/03/16 04:04:17;;;;;;;60.92;34.58;;;5.30;99.90;;;;;;4931104;28;20557;-63
2022/03/16 04:06:43;;;;;;;68.43;37.78;;;5.30;99.90;;;;;;4932757;28;20216;-68
2022/03/16 04:09:09;;;;;;;70.63;39.20;;;5.20;99.90;;;;;;4933961;28;20043;-64
2022/03/16 04:11:35;;;;;;;64.13;36.85;;;5.20;99.90;;;;;;4935498;28;20051;-62
2022/03/16 04:14:02;;;;;;;68.22;37.75;;;5.20;99.90;;;;;;4934231;28;20548;-68
2022/03/16 04:16:27;;;;;;;72.85;38.45;;;5.10;99.90;;;;;;4930796;28;20053;-67
2022/03/16 04:18:54;;;;;;;65.70;37.50;;;5.10;99.90;;;;;;4933769;28;20051;-65
2022/03/16 04:21:20;;;;;;;65.30;38.15;;;5.10;99.90;;;;;;4934894;28;20486;-66
2022/03/16 04:23:46;;;;;;;70.07;39.25;;;5.10;99.90;;;;;;4934410;28;20051;-68
2022/03/16 04:26:12;;;;;;;62.30;36.00;;;5.10;99.90;;;;;;4933819;28;20502;-67
2022/03/16 04:28:38;;;;;;;64.63;37.47;;;5.10;99.90;;;;;;4935302;28;20406;-66
2022/03/16 04:31:04;;;;;;;73.28;41.05;;;5.10;99.90;;;;;;4934066;28;20043;-65
2022/03/16 04:33:30;;;;;;;66.88;36.55;;;5.00;99.90;;;;;;4932351;28;20066;-63
2022/03/16 04:35:56;;;;;;;66.85;38.60;;;5.00;99.90;;;;;;4930331;28;20706;-67
2022/03/16 04:38:22;;;;;;;74.88;40.25;;;5.00;99.90;;;;;;4933334;28;21736;-62
2022/03/16 04:40:48;;;;;;;72.68;38.47;;;5.10;99.90;;;;;;4934899;28;20039;-65
2022/03/16 04:43:14;;;;;;;69.28;39.38;;;5.10;99.90;;;;;;4930949;28;20237;-67
2022/03/16 04:45:41;;;;;;;67.13;38.80;;;5.00;99.90;;;;;;4934494;28;20471;-62
2022/03/16 04:48:09;;;;;;;72.32;39.90;;;5.10;99.90;;;;;;4932822;28;20514;-68
2022/03/16 04:50:36;;;;;;;67.80;38.20;;;5.10;99.90;;;;;;4933618;28;20517;-67
2022/03/16 04:53:02;;;;;;;69.82;39.30;;;5.10;99.90;;;;;;4930076;28;20063;-67
2022/03/16 04:55:28;;;;;;;70.13;39.17;;;5.10;99.90;;;;;;4932974;28;20051;-68
2022/03/16 04:57:55;;;;;;;61.35;36.08;;;5.10;99.90;;;;;;4933978;28;20051;-68
2022/03/16 05:00:21;;;;;;;79.90;40.65;;;5.00;99.90;;;;;;4935507;28;20401;-67
2022/03/16 05:02:46;;;;;;;70.50;37.42;;;5.00;99.90;;;;;;4930259;28;20684;-62
2022/03/16 05:05:12;;;;;;;76.30;39.17;;;5.00;99.90;;;;;;4931207;28;20082;-68
2022/03/16 05:07:39;;;;;;;69.53;39.63;;;5.00;99.90;;;;;;4934078;28;20047;-67
2022/03/16 05:10:09;;;;;;;70.30;39.33;;;5.00;99.90;;;;;;4934755;28;20057;-67
2022/03/16 05:12:43;;;;;;;69.18;38.35;;;5.00;99.90;;;;;;4933365;28;20050;-68
2022/03/16 05:15:15;;;;;;;64.78;36.85;;;5.00;99.90;;;;;;4914298;28;20047;-68
2022/03/16 05:17:41;;;;;;;71.00;39.30;;;5.00;99.90;;;;;;4934911;28;20043;-66
2022/03/16 05:20:08;;;;;;;74.90;40.97;;;5.00;99.90;;;;;;4929211;28;20054;-63
2022/03/16 05:22:40;;;;;;;78.13;40.33;;;5.00;99.90;;;;;;4933523;28;20109;-66
2022/03/16 05:25:07;;;;;;;90.07;42.25;;;5.00;99.90;;;;;;4937627;28;20050;-66
2022/03/16 05:27:32;;;;;;;87.78;43.78;;;5.00;99.90;;;;;;4953495;28;20635;-63
2022/03/16 05:29:58;;;;;;;85.75;42.92;;;5.10;99.90;;;;;;4935063;28;20051;-63
2022/03/16 05:32:24;;;;;;;82.78;41.17;;;5.10;99.90;;;;;;4918475;28;20054;-66
2022/03/16 05:34:50;;;;;;;81.88;41.42;;;5.10;99.90;;;;;;4938060;28;20431;-68
2022/03/16 05:37:15;;;;;;;75.63;41.60;;;5.00;99.90;;;;;;4931815;28;20082;-68
2022/03/16 05:39:41;;;;;;;81.00;41.25;;;5.10;99.90;;;;;;4937104;28;20054;-67
2022/03/16 05:42:08;;;;;;;78.93;40.90;;;5.10;99.90;;;;;;4936487;28;21571;-61
2022/03/16 05:44:34;;;;;;;83.07;41.60;;;5.10;99.90;;;;;;4937605;28;20089;-62
2022/03/16 05:46:59;;;;;;;79.85;42.15;;;5.10;99.90;;;;;;4915832;28;20055;-65
2022/03/16 05:49:28;;;;;;;82.13;41.00;;;5.10;99.90;;;;;;4936424;28;20145;-66
2022/03/16 05:51:54;;;;;;;74.43;40.28;;;5.20;99.90;;;;;;4935245;28;20471;-65
2022/03/16 05:54:20;;;;;;;69.90;38.67;;;5.20;99.90;;;;;;4935750;28;20051;-65
2022/03/16 05:56:46;;;;;;;75.82;39.42;;;5.20;99.90;;;;;;4937733;28;20405;-68
2022/03/16 05:59:12;;;;;;;77.50;38.38;;;5.20;99.90;;;;;;4937221;28;21235;-68
2022/03/16 06:01:38;;;;;;;69.15;38.85;;;5.30;99.90;;;;;;4937082;28;20043;-64
2022/03/16 06:04:04;;;;;;;72.90;39.38;;;5.20;99.90;;;;;;4934027;28;20047;-66
2022/03/16 06:06:31;;;;;;;69.75;38.55;;;5.30;99.90;;;;;;4935633;28;20587;-67
2022/03/16 06:08:57;;;;;;;72.50;39.28;;;5.30;99.90;;;;;;4936665;28;20094;-65
2022/03/16 06:11:24;;;;;;;71.45;37.92;;;5.30;99.90;;;;;;4929296;28;20453;-66
2022/03/16 06:13:50;;;;;;;68.43;38.90;;;5.30;99.90;;;;;;4934151;28;20047;-67
2022/03/16 06:16:16;;;;;;;63.75;37.75;;;5.40;99.90;;;;;;4936525;28;20578;-67
2022/03/16 06:18:42;;;;;;;71.13;38.45;;;5.40;99.90;;;;;;4932798;28;20058;-63
2022/03/16 06:21:08;;;;;;;65.15;37.58;;;5.40;99.90;;;;;;4932023;28;20070;-64
2022/03/16 06:23:35;;;;;;;66.55;36.97;;;5.50;99.90;;;;;;4928058;28;20615;-66
2022/03/16 06:26:04;;;;;;;62.35;37.28;;;5.50;99.90;;;;;;4936834;28;20047;-67
2022/03/16 06:28:31;;;;;;;66.13;36.95;;;5.50;99.90;;;;;;4936449;28;23326;-67
2022/03/16 06:30:57;;;;;;;60.00;35.20;;;5.50;99.90;;;;;;4920918;28;20051;-67
2022/03/16 06:33:23;;;;;;;59.72;35.95;;;5.50;99.90;;;;;;4936175;28;21168;-67
2022/03/16 06:35:49;;;;;;;64.80;36.30;;;5.60;99.90;;;;;;4943479;28;20039;-66
2022/03/16 06:38:15;;;;;;;58.40;35.45;;;5.60;99.90;;;;;;4945932;29;20044;-67
2022/03/16 06:40:41;;;;;;;60.22;36.30;;;5.60;99.90;;;;;;4943679;28;20043;-66
2022/03/16 06:43:07;;;;;;;61.03;36.53;;;5.60;99.90;;;;;;4947967;28;20055;-67
2022/03/16 06:45:33;;;;;;;65.88;37.10;;;5.70;99.90;;;;;;4939683;28;20102;-67
2022/03/16 06:48:02;;;;;;;71.47;38.33;;;5.70;99.90;;;;;;4935705;28;21522;-62
2022/03/16 06:50:29;;;;;;;70.28;37.15;;;5.70;99.90;;;;;;4938322;28;20050;-67
2022/03/16 06:52:56;;;;;;;74.25;38.30;;;5.80;99.90;;;;;;4931958;28;20093;-67
2022/03/16 06:55:22;;;;;;;68.03;38.28;;;5.70;99.90;;;;;;4901337;28;20141;-63
2022/03/16 06:57:48;;;;;;;71.20;36.95;;;5.70;99.90;;;;;;4937315;28;20074;-67
2022/03/16 07:00:15;;;;;;;67.78;38.38;;;5.80;99.90;;;;;;4935306;28;20043;-67
2022/03/16 07:02:51;;;;;;;70.05;38.20;;;5.80;99.90;;;;;;4934879;28;20047;-66
2022/03/16 07:05:17;;;;;;;70.18;39.25;;;5.80;99.90;;;;;;4914454;28;20222;-64
2022/03/16 07:07:43;;;;;;;66.57;38.33;;;5.80;99.90;;;;;;4931400;28;20533;-63
2022/03/16 07:10:09;;;;;;;66.35;37.00;;;5.80;99.90;;;;;;4933461;28;20047;-64
2022/03/16 07:12:35;;;;;;;66.57;36.75;;;5.80;99.90;;;;;;4928841;28;20062;-68
2022/03/16 07:15:01;;;;;;;64.80;37.60;;;5.90;99.90;;;;;;4932313;28;20047;-61
2022/03/16 07:17:26;;;;;;;64.53;37.10;;;5.90;99.90;;;;;;4937320;28;20142;-63
2022/03/16 07:19:52;;;;;;;64.72;37.10;;;5.90;99.90;;;;;;4937448;28;21070;-68
2022/03/16 07:22:18;;;;;;;67.20;37.70;;;6.00;99.90;;;;;;4940559;28;20135;-67
2022/03/16 07:24:44;;;;;;;64.82;37.58;;;6.00;99.90;;;;;;4939839;28;20039;-67
2022/03/16 07:27:11;;;;;;;66.68;36.55;;;6.10;99.90;;;;;;4938627;28;20122;-65
2022/03/16 07:29:37;;;;;;;64.05;37.17;;;6.10;99.90;;;;;;4939491;28;20497;-66
2022/03/16 07:32:04;;;;;;;66.47;37.50;;;6.10;99.90;;;;;;4936949;28;20043;-64
2022/03/16 07:34:30;;;;;;;71.13;38.30;;;6.10;99.90;;;;;;4939792;28;20134;-67
2022/03/16 07:36:56;;;;;;;64.25;35.47;;;6.20;99.90;;;;;;4937237;28;20536;-68
2022/03/16 07:39:22;;;;;;;61.72;36.78;;;6.30;99.90;;;;;;4939883;28;20043;-66
2022/03/16 07:41:48;;;;;;;66.88;36.85;;;6.30;99.90;;;;;;4938169;28;20043;-67
2022/03/16 07:44:14;;;;;;;57.75;34.55;;;6.40;99.90;;;;;;4933425;28;20031;-66
2022/03/16 07:46:41;;;;;;;62.28;36.10;;;6.40;99.90;;;;;;4919591;28;20490;-68
2022/03/16 07:49:07;;;;;;;62.05;36.50;;;6.50;99.90;;;;;;4936469;28;20043;-64
2022/03/16 07:51:32;;;;;;;57.58;34.55;;;6.50;99.90;;;;;;4933315;28;20058;-67
2022/03/16 07:53:58;;;;;;;57.60;33.65;;;6.60;99.90;;;;;;4933517;28;20051;-67
2022/03/16 07:56:24;;;;;;;59.33;34.85;;;6.60;99.90;;;;;;4934999;28;20484;-64
2022/03/16 07:58:51;;;;;;;61.60;35.53;;;6.70;99.90;;;;;;4934063;28;20058;-64
2022/03/16 08:01:17;;;;;;;54.67;34.53;;;6.70;99.90;;;;;;4931727;28;21086;-64
2022/03/16 08:03:43;;;;;;;58.53;34.72;;;6.80;99.90;;;;;;4933546;28;20051;-63
2022/03/16 08:06:09;;;;;;;53.67;34.35;;;6.80;99.90;;;;;;4936014;28;20385;-62
2022/03/16 08:08:39;;;;;;;60.85;34.25;;;6.90;99.90;;;;;;4935138;28;20051;-67
2022/03/16 08:11:06;;;;;;;51.58;32.55;;;7.00;99.90;;;;;;4919455;28;20150;-65
2022/03/16 08:13:32;;;;;;;53.50;32.85;;;7.10;99.90;;;;;;4951184;28;20051;-65
2022/03/16 08:15:58;;;;;;;54.25;33.40;;;7.10;99.90;;;;;;4930787;28;20569;-68
2022/03/16 08:18:24;;;;;;;55.83;33.58;;;7.20;99.90;;;;;;4928024;29;20180;-68
2022/03/16 08:20:50;;;;;;;51.60;32.35;;;7.20;99.90;;;;;;4936074;28;20058;-68
2022/03/16 08:23:16;;;;;;;55.38;32.95;;;7.40;99.90;;;;;;4935211;28;20450;-66
2022/03/16 08:25:41;;;;;;;55.92;33.45;;;7.40;99.90;;;;;;4935587;28;20061;-68
2022/03/16 08:28:07;;;;;;;52.10;32.17;;;7.60;99.90;;;;;;4932817;28;20070;-65
2022/03/16 08:30:34;;;;;;;52.55;31.17;;;7.60;99.90;;;;;;4931904;28;20051;-66
2022/03/16 08:33:01;;;;;;;52.90;32.05;;;7.80;99.90;;;;;;4932574;28;20043;-67
2022/03/16 08:35:27;;;;;;;50.92;31.73;;;7.80;99.90;;;;;;4935097;28;20514;-64
2022/03/16 08:37:54;;;;;;;46.28;29.92;;;7.90;99.90;;;;;;4934867;28;20047;-67
2022/03/16 08:40:20;;;;;;;50.88;31.25;;;8.10;99.90;;;;;;4936120;28;20085;-68
2022/03/16 08:42:46;;;;;;;44.53;29.65;;;8.10;99.90;;;;;;4933946;28;20047;-67
2022/03/16 08:45:12;;;;;;;49.10;30.63;;;8.30;99.90;;;;;;4934255;28;20043;-66
2022/03/16 08:47:38;;;;;;;50.42;29.95;;;8.40;99.90;;;;;;4932611;28;20091;-67
2022/03/16 08:50:05;;;;;;;45.47;29.88;;;8.50;99.90;;;;;;4933761;28;20565;-66
2022/03/16 08:52:31;;;;;;;44.97;29.63;;;8.60;99.90;;;;;;4932109;28;20489;-68
2022/03/16 08:54:57;;;;;;;46.40;28.40;;;8.70;99.90;;;;;;4918521;28;20043;-67
2022/03/16 08:57:23;;;;;;;48.08;29.60;;;8.80;99.90;;;;;;4926986;28;20208;-69
2022/03/16 08:59:49;;;;;;;42.83;27.17;;;8.90;99.90;;;;;;4934367;28;20062;-68
2022/03/16 09:02:15;;;;;;;43.40;28.40;;;9.00;99.90;;;;;;4915037;28;20043;-68
2022/03/16 09:04:41;;;;;;;43.95;28.10;;;9.00;99.90;;;;;;4903130;28;20055;-68
2022/03/16 09:07:07;;;;;;;42.47;28.02;;;9.20;99.90;;;;;;4935326;28;20117;-66
2022/03/16 09:09:33;;;;;;;41.45;27.52;;;9.30;99.90;;;;;;4949742;28;20047;-66
2022/03/16 09:12:00;;;;;;;41.10;27.02;;;9.40;99.90;;;;;;4932969;28;20110;-66
2022/03/16 09:14:26;;;;;;;40.63;28.13;;;9.50;99.90;;;;;;4910845;29;20476;-68
2022/03/16 09:16:52;;;;;;;38.65;25.90;;;9.60;99.90;;;;;;4931692;28;20046;-67
2022/03/16 09:19:21;;;;;;;41.22;27.00;;;9.80;99.90;;;;;;4927225;28;20414;-68
2022/03/16 09:21:48;;;;;;;41.20;26.75;;;9.90;99.90;;;;;;4943351;28;20078;-66
2022/03/16 09:24:15;;;;;;;44.05;27.33;;;10.10;99.90;;;;;;4933714;28;20502;-67
2022/03/16 09:26:41;;;;;;;41.22;26.52;;;10.20;99.90;;;;;;4920342;28;20421;-67
2022/03/16 09:29:08;;;;;;;41.65;26.70;;;10.40;99.90;;;;;;4915607;28;20085;-67
2022/03/16 09:31:38;;;;;;;41.47;26.08;;;10.60;99.90;;;;;;4941904;28;20422;-66
2022/03/16 09:34:05;;;;;;;45.75;27.10;;;10.70;99.90;;;;;;4915262;28;20158;-66
2022/03/16 09:36:37;;;;;;;44.20;27.63;;;10.80;99.90;;;;;;4921763;29;20046;-68
2022/03/16 09:39:03;;;;;;;41.53;26.75;;;10.80;99.90;;;;;;4929420;28;20157;-66
2022/03/16 09:41:29;;;;;;;41.25;26.17;;;10.80;99.90;;;;;;4932429;28;20043;-67
2022/03/16 09:43:56;;;;;;;39.80;25.13;;;10.70;99.90;;;;;;4932513;28;20074;-68
2022/03/16 09:46:26;;;;;;;42.47;25.42;;;10.80;99.90;;;;;;4929456;28;20042;-68
2022/03/16 09:48:52;;;;;;;38.83;24.67;;;10.80;99.90;;;;;;4916041;28;20177;-68
2022/03/16 09:51:19;;;;;;;37.42;24.73;;;11.00;99.90;;;;;;4900570;29;20070;-68
2022/03/16 09:53:45;;;;;;;36.95;24.77;;;11.10;99.90;;;;;;4928428;28;20486;-68
2022/03/16 09:56:11;;;;;;;38.30;25.35;;;11.30;99.90;;;;;;4932679;28;20059;-67
2022/03/16 09:58:38;;;;;;;36.75;22.83;;;11.40;99.90;;;;;;4918935;28;20089;-67
2022/03/16 10:01:05;;;;;;;34.80;21.15;;;11.60;99.90;;;;;;4901289;28;20561;-69
2022/03/16 10:03:32;;;;;;;38.15;22.90;;;11.60;99.90;;;;;;4918224;28;20556;-67
2022/03/16 10:05:59;;;;;;;30.25;19.70;;;11.80;99.90;;;;;;4936960;28;20047;-67
2022/03/16 10:08:30;;;;;;;27.02;18.00;;;11.80;99.90;;;;;;4936427;28;20054;-66
2022/03/16 10:14:07;;;;;;;27.05;18.40;;;12.10;99.90;;;;;;4921384;28;20066;-67
2022/03/16 10:19:23;;;;;;;26.60;16.15;;;12.40;99.90;;;;;;4937002;28;20086;-68
2022/03/16 10:22:04;;;;;;;31.13;16.17;;;12.60;99.90;;;;;;4935976;28;20091;-68
2022/03/16 10:24:30;;;;;;;22.63;14.63;;;12.70;99.90;;;;;;4937198;28;20055;-69
2022/03/16 10:26:59;;;;;;;22.05;15.30;;;12.70;99.90;;;;;;4953233;28;20059;-68
2022/03/16 10:29:26;;;;;;;22.38;13.73;;;12.70;99.90;;;;;;4903093;28;20090;-69
2022/03/16 10:32:00;;;;;;;22.63;12.73;;;12.80;99.90;;;;;;4935591;28;20186;-67
2022/03/16 10:34:26;;;;;;;20.60;13.27;;;12.90;98.50;;;;;;4952391;28;20062;-66
2022/03/16 10:36:52;;;;;;;19.83;13.40;;;13.00;99.10;;;;;;4921890;28;20106;-66
2022/03/16 10:39:31;;;;;;;21.63;12.85;;;13.00;98.50;;;;;;4931086;28;20050;-68
2022/03/16 10:48:12;;;;;;;18.77;12.35;;;13.20;97.80;;;;;;4936381;28;20074;-69
2022/03/16 10:50:41;;;;;;;20.55;13.70;;;13.20;96.30;;;;;;4932706;28;20051;-68
2022/03/16 10:53:08;;;;;;;23.30;14.20;;;13.10;97.00;;;;;;4935028;28;20087;-69
2022/03/16 10:55:36;;;;;;;22.83;14.23;;;13.20;97.10;;;;;;4935923;28;20053;-68
2022/03/16 10:58:05;;;;;;;22.10;15.27;;;13.10;97.30;;;;;;4904716;29;20055;-69
2022/03/16 11:00:34;;;;;;;26.50;15.15;;;13.10;97.20;;;;;;4919018;28;20490;-67
2022/03/16 11:03:04;;;;;;;21.17;14.38;;;13.10;97.40;;;;;;4934841;28;20098;-66
2022/03/16 11:05:30;;;;;;;20.42;14.75;;;13.20;97.80;;;;;;4924476;28;20628;-68
2022/03/16 11:07:59;;;;;;;20.30;14.25;;;13.30;98.10;;;;;;4918989;28;20046;-67
2022/03/16 11:10:24;;;;;;;21.08;14.90;;;13.40;97.20;;;;;;4921057;28;20051;-68
2022/03/16 11:15:35;;;;;;;19.95;13.95;;;13.60;97.50;;;;;;4932003;29;20062;-67
2022/03/16 11:18:01;;;;;;;20.83;12.68;;;13.80;97.60;;;;;;4928628;29;20071;-68
2022/03/16 11:20:32;;;;;;;19.67;12.48;;;14.00;96.70;;;;;;4945873;28;20093;-69
2022/03/16 11:26:03;;;;;;;19.20;13.05;;;14.10;93.30;;;;;;4945817;29;20549;-69
2022/03/16 11:29:06;;;;;;;18.52;12.32;;;14.10;92.90;;;;;;4920508;28;20055;-68
2022/03/16 11:31:34;;;;;;;21.88;13.35;;;14.20;93.00;;;;;;4935936;28;20047;-67
2022/03/16 11:34:03;;;;;;;20.33;12.82;;;14.30;92.40;;;;;;4933832;28;20055;-67
2022/03/16 11:36:35;;;;;;;19.15;13.55;;;14.40;92.40;;;;;;4933582;28;20066;-64
2022/03/16 11:39:02;;;;;;;20.52;13.43;;;14.50;91.30;;;;;;4934331;28;20094;-64
2022/03/16 11:41:32;;;;;;;17.58;12.32;;;14.60;90.10;;;;;;4937367;28;20050;-61
2022/03/16 11:44:26;;;;;;;17.10;12.75;;;14.60;89.50;;;;;;4932762;28;20043;-64
2022/03/16 11:47:22;;;;;;;19.00;13.77;;;14.60;89.30;;;;;;4933672;28;20067;-62
2022/03/16 11:50:08;;;;;;;19.40;12.75;;;14.70;89.90;;;;;;4932658;28;20062;-63
2022/03/16 11:53:00;;;;;;;22.52;14.25;;;14.80;89.60;;;;;;4931567;28;20070;-63
2022/03/16 11:55:44;;;;;;;22.48;14.00;;;15.00;86.60;;;;;;4933654;28;20070;-64
2022/03/16 11:58:39;;;;;;;24.17;14.90;;;15.00;83.90;;;;;;4935708;28;20051;-61
2022/03/16 12:01:28;;;;;;;21.13;12.95;;;15.10;85.40;;;;;;4933091;28;20058;-62
2022/03/16 12:04:22;;;;;;;21.90;13.55;;;15.30;83.40;;;;;;4935597;28;24173;-65
2022/03/16 12:07:03;;;;;;;22.45;12.52;;;15.40;82.70;;;;;;4936683;28;20050;-64
2022/03/16 12:09:45;;;;;;;18.08;12.15;;;15.60;82.20;;;;;;4936848;28;20050;-64
2022/03/16 12:15:09;;;;;;;18.70;12.25;;;15.70;75.50;;;;;;4934132;28;20529;-62
2022/03/16 12:17:36;;;;;;;16.65;11.48;;;15.70;72.80;;;;;;4933814;28;20047;-65
2022/03/16 12:20:21;;;;;;;17.63;11.88;;;15.70;72.30;;;;;;4935859;28;20062;-62
2022/03/16 12:22:52;;;;;;;17.73;11.50;;;15.70;72.10;;;;;;4937087;28;20055;-65
2022/03/16 12:25:27;;;;;;;16.80;11.25;;;15.80;74.10;;;;;;4941585;28;20122;-64
2022/03/16 12:31:10;;;;;;;20.52;12.30;;;16.10;71.20;;;;;;4938024;29;20110;-65
2022/03/16 12:33:42;;;;;;;17.75;12.07;;;16.10;70.60;;;;;;4942720;28;20126;-65
2022/03/16 12:36:11;;;;;;;18.50;11.70;;;16.20;71.50;;;;;;4943037;28;20070;-65
2022/03/16 12:38:39;;;;;;;16.10;11.48;;;16.30;70.90;;;;;;4942957;28;20054;-64
2022/03/16 12:43:57;;;;;;;18.92;11.70;;;16.50;69.10;;;;;;4944247;28;20039;-65
2022/03/16 12:46:33;;;;;;;15.80;11.02;;;16.40;68.00;;;;;;4938796;28;20051;-65
2022/03/16 12:49:06;;;;;;;17.60;11.52;;;16.50;69.00;;;;;;4943326;28;20458;-65
2022/03/16 12:51:37;;;;;;;22.50;11.63;;;16.70;69.20;;;;;;4942754;28;20043;-64
2022/03/16 12:54:05;;;;;;;20.20;11.48;;;16.90;68.20;;;;;;4940953;28;20673;-64
2022/03/16 12:56:32;;;;;;;16.98;11.45;;;17.00;68.10;;;;;;4942531;28;20070;-64
2022/03/16 12:58:58;;;;;;;19.23;11.63;;;17.10;66.80;;;;;;4941083;28;20053;-64
2022/03/16 13:01:24;;;;;;;16.83;11.85;;;17.10;66.70;;;;;;4940762;28;20043;-65
2022/03/16 13:04:01;;;;;;;17.15;11.60;;;17.20;66.20;;;;;;4943093;28;20050;-64